Flight Track Log - Related Links

Times and Time Zones

All times are in EDT time to prevent confusion due to time zone crossing. See the DAL2384 flight status page for this flight to view local times or setup timezone preferences in your user account.

Time Position Orientation Groundspeed Altitude Reporting Facility
EDT Latitude Longitude Course Direction KTS MPH feet Rate Location/Type
Sat 12:10:31 PM 40.7711 -111.9744 78° East 172 198 5,100  Level Salt Lake Center
Sat 12:11:32 PM 40.7458 -112.0311 240° Southwest 237 273 6,800 2,127 Climbing Salt Lake Center
Sat 12:12:21 PM 40.7689 -112.0842 300° West 258 297 9,000 3,148 Climbing Salt Lake Center
Sat 12:12:33 PM 40.7947 -112.0939 344° North 264 304 10,000 2,687 Climbing Salt Lake Center
Sat 12:13:00 PM 41.0167 -111.9468 90° East  Level FlightAware Approximate
Sat 12:13:28 PM 40.8525 -112.0600 24° Northeast 284 327 12,000  Level Salt Lake Center
Sat 12:14:00 PM 41.0167 -111.7645 90° East  Level FlightAware Approximate
Sat 12:14:25 PM 40.8906 -111.9628 63° Northeast 318 366 14,200  Level Salt Lake Center
Sat 12:15:00 PM 41.0223 -111.5830 78° East  Level FlightAware Approximate
Sat 12:15:27 PM 40.9344 -111.8567 61° Northeast 332 382 16,000  Level Salt Lake Center
Sat 12:16:29 PM 40.9825 -111.7361 62° Northeast 388 447 17,000 1,355 Climbing Salt Lake Center
Sat 12:17:31 PM 41.0336 -111.5631 69° East 440 506 18,800 1,839 Climbing Salt Lake Center
Sat 12:18:33 PM 41.0478 -111.3989 83° East 449 517 20,800 1,790 Climbing Salt Lake Center
Sat 12:19:35 PM 41.0617 -111.2300 84° East 460 529 22,500 1,597 Climbing Salt Lake Center
Sat 12:20:37 PM 41.0792 -111.0567 82° East 469 540 24,100 1,610 Climbing Salt Lake Center
Sat 12:21:38 PM 41.1231 -110.8864 71° East 486 559 25,800 1,512 Climbing Salt Lake Center
Sat 12:22:40 PM 41.1703 -110.6936 72° East 492 566 27,200 1,355 Climbing Salt Lake Center
Sat 12:23:42 PM 41.2133 -110.5269 71° East 496 571 28,600 1,742 Climbing Salt Lake Center
Sat 12:24:44 PM 41.2636 -110.3325 71° East 499 574 30,800 1,935 Climbing Salt Lake Center
Sat 12:25:46 PM 41.3047 -110.1728 71° East 483 556 32,600 1,597 Climbing Salt Lake Center
Sat 12:26:48 PM 41.3506 -109.9878 72° East 473 544 34,100 1,403 Climbing Salt Lake Center
Sat 12:27:50 PM 41.3906 -109.8311 71° East 468 539 35,500 1,403 Climbing Salt Lake Center
Sat 12:28:52 PM 41.4344 -109.6536 72° East 454 522 37,000 726 Climbing Salt Lake Center
Sat 12:29:54 PM 41.4725 -109.5025 71° East 450 518 37,000  Level Salt Lake Center
Sat 12:30:56 PM 41.5103 -109.3489 72° East 451 519 37,000  Level Salt Lake Center
Sat 12:31:58 PM 41.5561 -109.1647 72° East 458 527 37,000  Level Salt Lake Center
Sat 12:33:00 PM 41.5867 -109.0017 76° East 465 535 37,000  Level Salt Lake Center
Sat 12:34:02 PM 41.5789 -108.8286 93° East 481 554 37,000  Level Salt Lake Center
Sat 12:35:04 PM 41.5622 -108.6297 96° East 484 557 37,000  Level Salt Lake Center
Sat 12:36:06 PM 41.5494 -108.4594 96° East 481 554 37,000  Level Salt Lake Center
Sat 12:36:49 PM 41.5381 -108.3156 96° East 481 554 37,000  Level Denver Center
Sat 12:37:51 PM 41.5253 -108.1467 96° East 479 551 37,000  Level Denver Center
Sat 12:38:53 PM 41.5106 -107.9508 96° East 477 549 37,000 242 Level Denver Center
Sat 12:39:55 PM 41.4969 -107.7831 96° East 474 545 37,500 532 Climbing Denver Center
Sat 12:40:57 PM 41.4797 -107.5833 97° East 485 558 38,100 532 Climbing Denver Center
Sat 12:41:59 PM 41.4650 -107.4106 96° East 490 564 38,600 435 Climbing Denver Center
Sat 12:43:01 PM 41.4486 -107.2078 96° East 493 567 39,000 194 Climbing Denver Center
Sat 12:44:03 PM 41.4325 -107.0350 97° East 491 565 39,000  Level Denver Center
Sat 12:45:06 PM 41.4147 -106.8331 97° East 492 566 39,000  Level Denver Center
Sat 12:46:08 PM 41.3989 -106.6594 97° East 493 567 39,000  Level Denver Center
Sat 12:47:10 PM 41.3822 -106.4747 97° East 495 570 39,000  Level Denver Center
Sat 12:48:12 PM 41.3628 -106.2708 97° East 499 574 39,000  Level Denver Center
Sat 12:49:14 PM 41.3467 -106.0950 97° East 502 578 39,000  Level Denver Center
Sat 12:50:16 PM 41.3267 -105.8886 97° East 505 581 39,000  Level Denver Center
Sat 12:51:18 PM 41.3086 -105.7083 98° East 512 589 39,000  Level Denver Center
Sat 12:52:20 PM 41.2869 -105.4981 98° East 514 592 39,000  Level Denver Center
Sat 12:53:22 PM 41.2686 -105.3167 98° East 519 597 39,000  Level Denver Center
Sat 12:54:24 PM 41.2469 -105.1058 98° East 517 595 39,000  Level Denver Center
Sat 12:55:26 PM 41.2267 -104.9264 98° East 516 594 39,000  Level Denver Center
Sat 12:56:28 PM 41.2075 -104.7208 97° East 509 586 39,000  Level Denver Center
Sat 12:57:30 PM 41.1969 -104.5439 94° East 504 580 39,000  Level Denver Center
Sat 12:58:32 PM 41.1858 -104.3394 94° East 501 577 39,000  Level Denver Center
Sat 12:59:34 PM 41.1750 -104.1617 95° East 507 583 39,000  Level Denver Center
Sat 01:00:36 PM 41.1614 -103.9525 95° East 512 589 39,000  Level Denver Center
Sat 01:01:39 PM 41.1503 -103.7742 95° East 509 586 39,000  Level Denver Center
Sat 01:02:41 PM 41.1378 -103.5931 95° East 514 592 39,000  Level Denver Center
Sat 01:03:43 PM 41.1242 -103.3814 95° East 516 594 39,000  Level Denver Center
Sat 01:04:45 PM 41.1108 -103.1997 96° East 518 596 39,000  Level Denver Center
Sat 01:05:47 PM 41.0978 -102.9786 94° East 516 594 39,000  Level Denver Center
Sat 01:06:49 PM 41.1094 -102.7947 85° East 522 601 39,000  Level Denver Center
Sat 01:07:51 PM 41.1272 -102.5800 84° East 524 603 39,000  Level Denver Center
Sat 01:08:53 PM 41.1431 -102.3950 83° East 527 606 39,000  Level Denver Center
Sat 01:09:55 PM 41.1561 -102.2097 85° East 528 608 39,000  Level Denver Center
Sat 01:10:57 PM 41.1722 -101.9914 84° East 530 610 39,000  Level Denver Center
Sat 01:11:59 PM 41.1858 -101.8042 84° East 532 612 39,000  Level Denver Center
Sat 01:13:01 PM 41.2003 -101.5844 85° East 534 615 39,000  Level Denver Center
Sat 01:14:03 PM 41.2136 -101.3958 85° East 534 615 39,000  Level Denver Center
Sat 01:15:30 PM 41.2325 -101.1108 85° East 536 617 39,000  Level Denver Center
Sat 01:16:32 PM 41.2469 -100.8903 85° East 534 615 39,000  Level Denver Center
Sat 01:17:34 PM 41.2586 -100.7003 85° East 534 615 39,000  Level Denver Center
Sat 01:18:36 PM 41.2717 -100.4797 85° East 533 613 39,000  Level Denver Center
Sat 01:19:38 PM 41.2828 -100.2939 85° East 527 606 39,000  Level Denver Center
Sat 01:20:40 PM 41.2919 -100.1078 86° East 526 605 39,000  Level Denver Center
Sat 01:21:43 PM 41.3044 -99.8922 86° East 523 602 39,000  Level Denver Center
Sat 01:22:45 PM 41.3144 -99.7078 86° East 521 600 39,000  Level Denver Center
Sat 01:23:47 PM 41.3250 -99.4942 86° East 519 597 39,000  Level Denver Center
Sat 01:24:49 PM 41.3347 -99.2881 86° East 520 598 39,000  Level Denver Center
Sat 01:25:51 PM 41.3442 -99.0939 86° East 521 600 39,000  Level Denver Center
Sat 01:26:40 PM 41.3511 -98.9436 86° East 520 598 39,000  Level Minneapolis Center
Sat 01:27:42 PM 41.3583 -98.7500 87° East 522 601 39,000  Level Minneapolis Center
Sat 01:28:44 PM 41.3675 -98.5592 86° East 520 598 39,000  Level Minneapolis Center
Sat 01:29:46 PM 41.3761 -98.3514 87° East 523 602 39,000  Level Minneapolis Center
Sat 01:30:48 PM 41.3850 -98.1572 86° East 522 601 39,000  Level Minneapolis Center
Sat 01:31:50 PM 41.3969 -97.9425 86° East 521 600 39,000  Level Minneapolis Center
Sat 01:32:52 PM 41.4047 -97.7494 87° East 521 600 39,000  Level Minneapolis Center
Sat 01:33:54 PM 41.4136 -97.5567 86° East 521 600 39,000  Level Minneapolis Center
Sat 01:34:56 PM 41.4219 -97.3611 87° East 526 605 39,000  Level Minneapolis Center
Sat 01:35:58 PM 41.4297 -97.1672 87° East 525 604 39,000  Level Minneapolis Center
Sat 01:37:00 PM 41.4378 -96.9725 87° East 525 604 39,000  Level Minneapolis Center
Sat 01:38:03 PM 41.4444 -96.7775 87° East 527 606 39,000  Level Minneapolis Center
Sat 01:39:05 PM 41.4536 -96.5450 87° East 523 602 39,000  Level Minneapolis Center
Sat 01:40:07 PM 41.4608 -96.3497 87° East 526 605 39,000  Level Minneapolis Center
Sat 01:41:09 PM 41.4667 -96.1361 88° East 529 609 39,000  Level Minneapolis Center
Sat 01:42:11 PM 41.4711 -95.9406 88° East 529 609 39,000  Level Minneapolis Center
Sat 01:43:13 PM 41.4769 -95.7461 88° East 526 605 39,000  Level Minneapolis Center
Sat 01:44:15 PM 41.4822 -95.5558 88° East 523 602 39,000  Level Minneapolis Center
Sat 01:45:17 PM 41.4869 -95.3606 88° East 526 605 39,000  Level Minneapolis Center
Sat 01:46:19 PM 41.4919 -95.1650 88° East 529 609 39,000  Level Minneapolis Center
Sat 01:47:21 PM 41.4978 -94.9311 88° East 526 605 39,000  Level Minneapolis Center
Sat 01:48:23 PM 41.5006 -94.7372 89° East 524 603 39,000  Level Minneapolis Center
Sat 01:49:25 PM 41.5050 -94.5444 88° East 522 601 39,000  Level Minneapolis Center
Sat 01:50:27 PM 41.5072 -94.3519 89° East 520 598 39,000  Level Minneapolis Center
Sat 01:51:30 PM 41.5103 -94.1378 89° East 518 596 39,000  Level Minneapolis Center
Sat 01:52:32 PM 41.5122 -93.9469 89° East 519 597 39,000  Level Minneapolis Center
Sat 01:53:34 PM 41.5153 -93.7561 89° East 519 597 39,000  Level Minneapolis Center
Sat 01:54:36 PM 41.5169 -93.5653 89° East 519 597 39,000  Level Minneapolis Center
Sat 01:55:38 PM 41.5189 -93.3739 89° East 519 597 39,000  Level Minneapolis Center
Sat 01:56:40 PM 41.5208 -93.1819 89° East 521 600 39,000  Level Minneapolis Center
Sat 01:57:42 PM 41.5219 -92.9519 90° East 520 598 39,000  Level Minneapolis Center
Sat 01:58:44 PM 41.5228 -92.7628 90° East 516 594 39,000  Level Minneapolis Center
Sat 01:59:46 PM 41.5225 -92.5706 90° East 518 596 39,000  Level Minneapolis Center
Sat 02:00:48 PM 41.5233 -92.3781 90° East 520 598 39,000  Level Minneapolis Center
Sat 02:01:50 PM 41.5228 -92.1864 90° East 520 598 39,000  Level Minneapolis Center
Sat 02:02:52 PM 41.5217 -91.9547 90° East 522 601 39,000  Level Minneapolis Center
Sat 02:03:54 PM 41.5214 -91.7603 90° East 524 603 39,000  Level Minneapolis Center
Sat 02:05:19 PM 41.5122 -91.4950 93° East 522 601 39,000  Level Chicago Center
Sat 02:06:21 PM 41.4994 -91.3056 95° East 522 601 39,000  Level Chicago Center
Sat 02:07:23 PM 41.4861 -91.1139 95° East 520 598 39,000  Level Chicago Center
Sat 02:08:25 PM 41.4722 -90.9222 95° East 519 597 39,000  Level Chicago Center
Sat 02:09:27 PM 41.4558 -90.6939 95° East 515 593 39,000  Level Chicago Center
Sat 02:10:29 PM 41.4422 -90.5053 95° East 511 588 39,000  Level Chicago Center
Sat 02:11:30 PM 41.4272 -90.3167 96° East 511 588 39,000  Level Chicago Center
Sat 02:12:32 PM 41.4139 -90.1267 95° East 512 589 39,000  Level Chicago Center
Sat 02:13:34 PM 41.4000 -89.9400 96° East 507 583 39,000  Level Chicago Center
Sat 02:14:36 PM 41.3850 -89.7539 96° East 504 580 39,000  Level Chicago Center
Sat 02:15:38 PM 41.3700 -89.5664 96° East 507 583 39,000  Level Chicago Center
Sat 02:16:39 PM 41.3550 -89.3847 96° East 498 573 39,000  Level Chicago Center
Sat 02:17:41 PM 41.3342 -89.1758 97° East 483 556 39,000  Level Chicago Center
Sat 02:18:43 PM 41.3194 -88.9992 96° East 486 559 39,000  Level Chicago Center
Sat 02:19:45 PM 41.3031 -88.8214 97° East 484 557 39,000  Level Chicago Center
Sat 02:20:47 PM 41.2881 -88.6439 96° East 487 560 39,000  Level Chicago Center
Sat 02:21:48 PM 41.2719 -88.4669 97° East 487 560 39,000  Level Chicago Center
Sat 02:22:50 PM 41.2528 -88.2567 97° East 484 557 39,000  Level Chicago Center
Sat 02:23:52 PM 41.2350 -88.0842 98° East 486 559 39,000  Level Chicago Center
Sat 02:24:54 PM 41.2175 -87.9089 98° East 502 578 39,000  Level Chicago Center
Sat 02:25:56 PM 41.2014 -87.7342 97° East 486 559 39,000  Level Chicago Center
Sat 02:26:57 PM 41.1828 -87.5250 97° East 481 554 39,000  Level Chicago Center
Sat 02:27:59 PM 41.1672 -87.3508 97° East 481 554 39,000  Level Chicago Center
Sat 02:29:01 PM 41.1647 -87.1736 91° East 483 556 39,000  Level Chicago Center
Sat 02:30:03 PM 41.1653 -86.9967 90° East 484 557 39,000  Level Chicago Center
Sat 02:31:05 PM 41.1644 -86.8203 90° East 482 555 39,000  Level Chicago Center
Sat 02:32:07 PM 41.1606 -86.6317 92° East 485 558 39,000  Level Chicago Center
Sat 02:33:09 PM 41.1314 -86.4572 102° East 490 564 39,000  Level Chicago Center
Sat 02:34:11 PM 41.0825 -86.2506 107° East 492 566 39,000  Level Chicago Center
Sat 02:35:13 PM 41.0419 -86.0800 107° East 490 564 39,000  Level Chicago Center
Sat 02:36:15 PM 41.0003 -85.9089 108° East 492 566 39,000  Level Chicago Center
Sat 02:37:17 PM 40.9592 -85.7394 108° East 490 564 39,000  Level Chicago Center
Sat 02:38:19 PM 40.9183 -85.5708 108° East 486 559 39,000  Level Chicago Center
Sat 02:39:21 PM 40.8772 -85.4006 108° East 491 565 39,000  Level Chicago Center
Sat 02:40:23 PM 40.8283 -85.1911 107° East 501 577 39,000  Level Chicago Center
Sat 02:41:25 PM 40.7858 -85.0219 108° East 495 570 39,000  Level Chicago Center
Sat 02:42:27 PM 40.7450 -84.8558 108° East 486 559 39,000  Level Chicago Center
Sat 02:43:29 PM 40.7033 -84.6878 108° East 484 557 39,000  Level Chicago Center
Sat 02:44:31 PM 40.6600 -84.5217 109° East 484 557 39,000  Level Chicago Center
Sat 02:45:33 PM 40.6094 -84.3178 108° East 487 560 39,000  Level Chicago Center
Sat 02:46:35 PM 40.5656 -84.1492 109° East 489 563 39,000  Level Chicago Center
Sat 02:47:44 PM 40.5200 -83.9731 109° East 488 562 39,000  Level Indianapolis Center
Sat 02:48:46 PM 40.4739 -83.7942 109° East 493 567 39,000  Level Indianapolis Center
Sat 02:49:47 PM 40.4286 -83.6219 109° East 495 570 39,000  Level Indianapolis Center
Sat 02:50:48 PM 40.3836 -83.4503 109° East 494 568 39,000  Level Indianapolis Center
Sat 02:51:50 PM 40.3300 -83.2486 109° East 497 572 39,000  Level Indianapolis Center
Sat 02:52:51 PM 40.2836 -83.0769 109° East 498 573 39,000 -98 Level Indianapolis Center
Sat 02:53:53 PM 40.2378 -82.9061 109° East 496 571 38,800 -488 Descending Indianapolis Center
Sat 02:54:54 PM 40.1917 -82.7369 110° East 492 566 38,000 -390 Descending Indianapolis Center
Sat 02:55:56 PM 40.1456 -82.5678 110° East 492 566 38,000  Level Indianapolis Center
Sat 02:56:57 PM 40.0956 -82.3989 111° Southeast 493 567 38,000  Level Indianapolis Center
Sat 02:57:59 PM 40.0447 -82.2339 112° Southeast 490 564 38,000  Level Indianapolis Center
Sat 02:59:00 PM 39.9961 -82.0678 111° Southeast 488 562 38,000  Level Indianapolis Center
Sat 03:00:02 PM 39.9414 -81.8883 112° Southeast 488 562 38,000  Level Indianapolis Center
Sat 03:01:03 PM 39.8919 -81.7225 111° Southeast 489 563 38,000  Level Indianapolis Center
Sat 03:02:05 PM 39.8414 -81.5572 112° Southeast 490 564 38,000  Level Indianapolis Center
Sat 03:03:06 PM 39.7908 -81.3936 112° Southeast 488 562 38,000 -146 Level Indianapolis Center
Sat 03:04:08 PM 39.7400 -81.2289 112° Southeast 489 563 37,700 -732 Descending Indianapolis Center
Sat 03:05:09 PM 39.6897 -81.0656 112° Southeast 486 559 36,500 -1,024 Descending Indianapolis Center
Sat 03:06:11 PM 39.6394 -80.9042 112° Southeast 484 557 35,600 -1,065 Descending Indianapolis Center
Sat 03:07:13 PM 39.5886 -80.7425 112° Southeast 483 556 34,300 -1,350 Descending Indianapolis Center
Sat 03:08:51 PM 39.4950 -80.4475 112° Southeast 488 562 32,000 -1,238 Descending Indianapolis Center
Sat 03:09:53 PM 39.4439 -80.2875 112° Southeast 481 554 31,000 -488 Descending Indianapolis Center
Sat 03:10:54 PM 39.3925 -80.1267 112° Southeast 483 556 31,000  Level Indianapolis Center
Sat 03:11:56 PM 39.3392 -79.9642 113° Southeast 489 563 31,000  Level Indianapolis Center
Sat 03:12:29 PM 39.3139 -79.8847 112° Southeast 489 563 31,000  Level Cleveland Center
Sat 03:13:23 PM 39.2886 -79.7186 101° East 480 552 31,000  Level Washington Center
Sat 03:14:24 PM 39.2753 -79.5597 96° East 455 524 31,000 -645 Level Washington Center
Sat 03:15:24 PM 39.2619 -79.3956 96° East 449 517 29,700 -2,033 Descending Washington Center
Sat 03:16:25 PM 39.2461 -79.2311 97° East 449 517 26,900 -1,835 Descending Washington Center
Sat 03:17:25 PM 39.2319 -79.0750 97° East 454 522 26,000 -1,000 Descending Washington Center
Sat 03:18:25 PM 39.2194 -78.9297 96° East 431 496 24,900 -1,513 Descending Washington Center
Sat 03:19:24 PM 39.2064 -78.7900 97° East 409 471 23,000 -2,017 Descending Washington Center
Sat 03:20:24 PM 39.1933 -78.6528 97° East 398 458 20,900 -2,200 Descending Washington Center
Sat 03:21:24 PM 39.1781 -78.5208 98° East 386 444 18,600 -1,884 Descending Washington Center
Sat 03:22:25 PM 39.1644 -78.3839 97° East 386 444 17,100 -1,190 Descending Washington Center
Sat 03:23:25 PM 39.1400 -78.2650 105° East 363 418 16,200 -915 Descending Washington Center
Sat 03:24:23 PM 39.1094 -78.1464 108° East 354 407 15,300 -1,050 Descending Washington Center
Sat 03:25:25 PM 39.0783 -78.0275 109° East 348 400 14,100 -1,230 Descending Washington Center
Sat 03:26:25 PM 39.0494 -77.9117 108° East 348 400 12,800 -1,050 Descending Washington Center
Sat 03:27:25 PM 39.0261 -77.8200 108° East 327 376 12,000 -1,160 Descending Washington Center
Sat 03:28:24 PM 38.9969 -77.7097 109° East 303 349 10,500 -1,227 Descending Washington Center
Sat 03:29:37 PM 38.9667 -77.5833 107° East 275 316 9,300 -947 Descending Potomac TRACON
Sat 03:30:37 PM 38.9333 -77.5000 117° Southeast 273 314 8,400 -900 Descending Potomac TRACON
Sat 03:31:37 PM 38.9000 -77.4167 117° Southeast 267 307 7,500 -992 Descending Potomac TRACON
Sat 03:32:38 PM 38.8667 -77.3333 117° Southeast 259 298 6,400 -1,028 Descending Potomac TRACON
Sat 03:34:00 PM 38.7722 -77.1444 123° Southeast  Level FlightAware Approximate
Sat 03:34:38 PM 38.7833 -77.1833 123° Southeast 261 300 4,400  Level Potomac TRACON
Sat 03:35:38 PM 38.7500 -77.1167 123° Southeast 264 304 3,100 -694 Descending Potomac TRACON
Sat 03:36:39 PM 38.6833 -77.1000 169° South 239 275 3,000 -198 Descending Potomac TRACON
Sat 03:37:39 PM 38.7000 -77.0333 72° East 218 251 2,700 -600 Descending Potomac TRACON
Sat 03:38:39 PM 38.7667 -77.0333 360° North 193 222 1,800 -992 Descending Potomac TRACON
Sat 03:39:40 PM 38.8167 -77.0333 360° North 156 180 700 -1,082 Descending Potomac TRACON

Login

Don't have an account? Register now (free) for customized features, flight alerts, and more!